Airfield :
LOGIN :

Register | Disclaimer

   EN    FR    IT 

 










Legend :    VFR   Marginal VFR   IFR   Intensive IFR   Very Intensive IFR
Visi :
Ceiling :
>= 8 km
>= 3000ft
5 to 8 km
1000 to 3000 ft
1500m to 5 km
500 to 1000 ft
800 to 1500m
200 to 500 ft
< 800m
< 200 ft
Symbols :   Thunderstorms  Fog  Heavy snow  Heavy precipitations  Wind > 20 kt
SIGMETs :     Misc.  Thunderstorms  Icing  Turbulence  Mountain Waves  Volcanic Ashes






- Airport Elevation : 1649 ft
- IATA code : HHN


EDFH - Frankfurt-Hahn Rhineland-Palatinate

CURRENT METAR :
  • 201320Z 29011KT 240V320 9999 SCT020 01/M03 Q1025

EXPIRED METARs :
  • 201250Z 29009KT 250V320 9999 SCT023 01/M02 Q1025
  • 201220Z 31011KT 280V350 9999 SCT022 BKN048 01/M03 Q1026
  • 201150Z 32011KT 9999 SCT020 BKN034 01/M03 Q1026
  • 201120Z 33011KT 290V360 9999 SCT016 BKN035 01/M01 Q1025
  • 201050Z 31007KT 270V340 9000 BKN010 00/M00 Q1026

TAF TAF EDFH
Valid from the 20 at 12:00 until the 21 at 12:00 UTC


201100Z 2012/2112 29010KT 8000 BKN006
PROB30
TEMPO 2012/2106 3000 -SHSN BKN004TCU



MET'MAP, your aeronautical weather chart ! - Copyright ORBIFLY December 2007 - Disclaimer

ORBIFLY MET'MAP TEAM :

Programming & Development : Alexandra Zaïnal
Concept & original design : Baudouin d'Aumeries
Assistance for programming : Marc-Olivier Méhu
Technical & hardware support : Manuel Goepfert

Contact : metmap@orbifly.com




SOURCES & CREDITS :

   NOAA